Time;durP1;ratioP1;P1;durP2;ratioP2;P2;SDS_P1;SDS_P2;PMS_P1;PMS_P2;Temp;Humidity;BMP_temperature;BMP_pressure;BME280_temperature;BME280_humidity;BME280_pressure;Samples;Min_cycle;Max_cycle;Signal;HPM_P1;HPM_P2
2023/06/14 00:01:21;;;;;;;;;;;;;;;;;;5073428;28;20380;-61
2023/06/14 00:03:48;;;;;;;;;;;;;;;;;;5073573;28;19925;-61
2023/06/14 00:06:14;;;;;;;;;;;;;;;;;;5073377;28;19931;-61
2023/06/14 00:08:40;;;;;;;;;;;;;;;;;;5071806;28;19927;-61
2023/06/14 00:11:06;;;;;;;;;;;;;;;;;;5073195;28;19994;-61
2023/06/14 00:13:32;;;;;;;;;;;;;;;;;;5069953;28;19924;-61
2023/06/14 00:15:58;;;;;;;;;;;;;;;;;;5071776;28;19931;-61
2023/06/14 00:18:24;;;;;;;;;;;;;;;;;;5073260;28;19928;-61
2023/06/14 00:20:51;;;;;;;;;;;;;;;;;;5073439;28;19927;-61
2023/06/14 00:23:17;;;;;;;;;;;;;;;;;;5069637;28;19924;-60
2023/06/14 00:25:43;;;;;;;;;;;;;;;;;;5073107;28;19986;-61
2023/06/14 00:28:09;;;;;;;;;;;;;;;;;;5062176;28;20047;-60
2023/06/14 00:30:35;;;;;;;;;;;;;;;;;;5070965;28;19925;-61
2023/06/14 00:33:01;;;;;;;;;;;;;;;;;;5055065;28;20281;-60
2023/06/14 00:35:27;;;;;;;;;;;;;;;;;;5069585;28;20026;-61
2023/06/14 00:37:54;;;;;;;;;;;;;;;;;;5034877;28;19921;-61
2023/06/14 00:40:20;;;;;;;;;;;;;;;;;;5057655;28;20439;-61
2023/06/14 00:42:46;;;;;;;;;;;;;;;;;;5072913;28;19966;-60
2023/06/14 00:45:12;;;;;;;;;;;;;;;;;;5054607;28;20024;-60
2023/06/14 00:47:38;;;;;;;;;;;;;;;;;;5037733;28;19924;-60
2023/06/14 00:50:04;;;;;;;;;;;;;;;;;;5071027;28;19924;-61
2023/06/14 00:52:32;;;;;;;;;;;;;;;;;;5054435;28;19920;-61
2023/06/14 00:54:58;;;;;;;;;;;;;;;;;;5072445;28;19928;-61
2023/06/14 00:57:24;;;;;;;;;;;;;;;;;;5054336;28;19924;-61
2023/06/14 00:59:50;;;;;;;;;;;;;;;;;;5070317;28;19931;-61
2023/06/14 01:02:16;;;;;;;;;;;;;;;;;;5071517;28;19986;-61
2023/06/14 01:04:45;;;;;;;;;;;;;;;;;;5069864;28;20003;-61
2023/06/14 01:07:13;;;;;;;;;;;;;;;;;;5072107;28;19920;-60
2023/06/14 01:09:39;;;;;;;;;;;;;;;;;;5071841;28;19924;-61
2023/06/14 01:12:06;;;;;;;;;;;;;;;;;;5072074;28;19931;-60
2023/06/14 01:14:32;;;;;;;;;;;;;;;;;;5069905;28;19921;-60
2023/06/14 01:17:00;;;;;;;;;;;;;;;;;;5072049;28;19931;-61
2023/06/14 01:19:27;;;;;;;;;;;;;;;;;;5070602;28;19928;-61
2023/06/14 01:21:55;;;;;;;;;;;;;;;;;;5071707;28;19931;-60
2023/06/14 01:24:25;;;;;;;;;;;;;;;;;;5053216;28;19921;-60
2023/06/14 01:26:55;;;;;;;;;;;;;;;;;;5070626;28;19932;-60
2023/06/14 01:29:21;;;;;;;;;;;;;;;;;;5052077;28;19928;-60
2023/06/14 01:31:47;;;;;;;;;;;;;;;;;;5052130;28;19928;-60
2023/06/14 01:34:13;;;;;;;;;;;;;;;;;;5060797;28;19943;-60
2023/06/14 01:36:39;;;;;;;;;;;;;;;;;;5028000;22;19925;-60
2023/06/14 01:39:05;;;;;;;;;;;;;;;;;;5010645;28;20382;-60
2023/06/14 01:41:31;;;;;;;;;;;;;;;;;;5011764;28;19932;-60
2023/06/14 01:43:57;;;;;;;;;;;;;;;;;;5012064;28;20132;-61
2023/06/14 01:46:23;;;;;;;;;;;;;;;;;;5010981;28;19921;-61
2023/06/14 01:48:49;;;;;;;;;;;;;;;;;;5008677;28;19933;-60
2023/06/14 01:51:15;;;;;;;;;;;;;;;;;;5011728;28;19930;-61
2023/06/14 01:53:41;;;;;;;;;;;;;;;;;;5011111;28;20024;-60
2023/06/14 01:56:07;;;;;;;;;;;;;;;;;;5010215;28;20568;-61
2023/06/14 01:58:33;;;;;;;;;;;;;;;;;;5011573;28;19925;-61
2023/06/14 02:01:00;;;;;;;;;;;;;;;;;;5011815;28;19921;-61
2023/06/14 02:03:27;;;;;;;;;;;;;;;;;;5025474;28;20016;-61
2023/06/14 02:05:54;;;;;;;;;;;;;;;;;;5012008;28;19922;-61
2023/06/14 02:08:20;;;;;;;;;;;;;;;;;;5010033;28;20431;-61
2023/06/14 02:10:46;;;;;;;;;;;;;;;;;;5011168;28;19984;-61
2023/06/14 02:13:12;;;;;;;;;;;;;;;;;;5013403;28;19921;-61
2023/06/14 02:15:38;;;;;;;;;;;;;;;;;;5009246;28;20334;-61
2023/06/14 02:18:04;;;;;;;;;;;;;;;;;;5010256;28;19921;-61
2023/06/14 02:20:30;;;;;;;;;;;;;;;;;;5011310;28;19921;-61
2023/06/14 02:22:56;;;;;;;;;;;;;;;;;;5011324;28;19921;-61
2023/06/14 02:25:21;;;;;;;;;;;;;;;;;;5008542;28;19925;-61
2023/06/14 02:27:47;;;;;;;;;;;;;;;;;;5004509;28;19922;-61
2023/06/14 02:30:13;;;;;;;;;;;;;;;;;;5008025;28;19928;-61
2023/06/14 02:32:40;;;;;;;;;;;;;;;;;;5008303;28;19921;-61
2023/06/14 02:35:06;;;;;;;;;;;;;;;;;;5010084;28;19926;-61
2023/06/14 02:37:32;;;;;;;;;;;;;;;;;;5014848;28;19926;-60
2023/06/14 02:39:58;;;;;;;;;;;;;;;;;;5015246;28;19929;-62
2023/06/14 02:42:24;;;;;;;;;;;;;;;;;;5015084;28;19947;-61
2023/06/14 02:44:51;;;;;;;;;;;;;;;;;;5015218;28;19921;-60
2023/06/14 02:47:16;;;;;;;;;;;;;;;;;;5014126;28;19922;-60
2023/06/14 02:49:42;;;;;;;;;;;;;;;;;;5015066;28;19984;-60
2023/06/14 02:52:08;;;;;;;;;;;;;;;;;;5014926;28;19932;-61
2023/06/14 02:54:34;;;;;;;;;;;;;;;;;;5014793;28;19930;-60
2023/06/14 02:57:00;;;;;;;;;;;;;;;;;;5014457;28;20387;-60
2023/06/14 02:59:26;;;;;;;;;;;;;;;;;;5012030;28;20024;-60
2023/06/14 03:01:52;;;;;;;;;;;;;;;;;;5007585;28;19941;-60
2023/06/14 03:04:18;;;;;;;;;;;;;;;;;;5014189;28;20363;-60
2023/06/14 03:06:50;;;;;;;;;;;;;;;;;;5011932;28;19932;-61
2023/06/14 03:09:15;;;;;;;;;;;;;;;;;;5013843;28;19933;-61
2023/06/14 03:11:41;;;;;;;;;;;;;;;;;;5013123;28;19926;-61
2023/06/14 03:14:08;;;;;;;;;;;;;;;;;;5010037;28;19922;-61
2023/06/14 03:16:34;;;;;;;;;;;;;;;;;;5008263;28;19921;-60
2023/06/14 03:18:59;;;;;;;;;;;;;;;;;;5009466;28;19979;-60
2023/06/14 03:21:25;;;;;;;;;;;;;;;;;;5011941;28;19958;-60
2023/06/14 03:23:52;;;;;;;;;;;;;;;;;;5013368;28;20338;-60
2023/06/14 03:26:18;;;;;;;;;;;;;;;;;;5013070;28;20386;-60
2023/06/14 03:28:45;;;;;;;;;;;;;;;;;;5009597;28;19961;-60
2023/06/14 03:31:11;;;;;;;;;;;;;;;;;;5012159;28;20433;-61
2023/06/14 03:33:37;;;;;;;;;;;;;;;;;;5028508;28;19925;-61
2023/06/14 03:36:03;;;;;;;;;;;;;;;;;;5008173;28;19933;-61
2023/06/14 03:38:29;;;;;;;;;;;;;;;;;;5009378;28;20059;-61
2023/06/14 03:40:54;;;;;;;;;;;;;;;;;;5012211;28;20016;-61
2023/06/14 03:43:20;;;;;;;;;;;;;;;;;;5011294;28;19988;-60
2023/06/14 03:45:46;;;;;;;;;;;;;;;;;;5012534;28;19964;-62
2023/06/14 03:48:12;;;;;;;;;;;;;;;;;;5010529;28;20031;-60
2023/06/14 03:50:38;;;;;;;;;;;;;;;;;;5012498;28;20290;-61
2023/06/14 03:53:04;;;;;;;;;;;;;;;;;;5012584;28;19926;-61
2023/06/14 03:55:33;;;;;;;;;;;;;;;;;;5012913;28;20632;-60
2023/06/14 03:57:59;;;;;;;;;;;;;;;;;;5011977;28;20664;-60
2023/06/14 04:00:25;;;;;;;;;;;;;;;;;;5012243;28;20012;-61
2023/06/14 04:02:51;;;;;;;;;;;;;;;;;;5027466;28;19968;-61
2023/06/14 04:05:19;;;;;;;;;;;;;;;;;;5011865;28;19960;-61
2023/06/14 04:07:44;;;;;;;;;;;;;;;;;;5013130;28;19926;-62
2023/06/14 04:10:10;;;;;;;;;;;;;;;;;;5010621;28;19928;-61
2023/06/14 04:12:36;;;;;;;;;;;;;;;;;;5010619;28;20480;-61
2023/06/14 04:15:03;;;;;;;;;;;;;;;;;;5012781;28;19926;-61
2023/06/14 04:17:29;;;;;;;;;;;;;;;;;;5006714;28;19929;-61
2023/06/14 04:19:55;;;;;;;;;;;;;;;;;;5012635;28;19936;-61
2023/06/14 04:22:21;;;;;;;;;;;;;;;;;;5013583;28;19925;-59
2023/06/14 04:24:47;;;;;;;;;;;;;;;;;;5013472;28;19976;-61
2023/06/14 04:27:14;;;;;;;;;;;;;;;;;;5007486;28;20359;-59
2023/06/14 04:29:43;;;;;;;;;;;;;;;;;;5013104;28;20011;-62
2023/06/14 04:32:10;;;;;;;;;;;;;;;;;;5010182;28;19987;-61
2023/06/14 04:34:37;;;;;;;;;;;;;;;;;;5013341;28;19926;-60
2023/06/14 04:37:03;;;;;;;;;;;;;;;;;;5015149;28;19925;-61
2023/06/14 04:39:29;;;;;;;;;;;;;;;;;;4992680;28;19932;-62
2023/06/14 04:41:56;;;;;;;;;;;;;;;;;;5007914;28;20016;-60
2023/06/14 04:44:24;;;;;;;;;;;;;;;;;;5010088;28;19932;-60
2023/06/14 04:46:50;;;;;;;;;;;;;;;;;;5010957;28;20450;-60
2023/06/14 04:49:16;;;;;;;;;;;;;;;;;;5012864;28;19929;-60
2023/06/14 04:51:42;;;;;;;;;;;;;;;;;;5012849;28;19929;-60
2023/06/14 04:54:10;;;;;;;;;;;;;;;;;;5012916;28;20387;-60
2023/06/14 04:56:37;;;;;;;;;;;;;;;;;;5011225;28;20403;-61
2023/06/14 04:59:04;;;;;;;;;;;;;;;;;;5012131;28;20418;-61
2023/06/14 05:01:31;;;;;;;;;;;;;;;;;;5008120;28;19929;-61
2023/06/14 05:03:57;;;;;;;;;;;;;;;;;;5012844;28;20279;-61
2023/06/14 05:06:23;;;;;;;;;;;;;;;;;;5012520;28;19926;-61
2023/06/14 05:08:49;;;;;;;;;;;;;;;;;;5012473;28;20359;-61
2023/06/14 05:11:17;;;;;;;;;;;;;;;;;;5010952;28;20401;-61
2023/06/14 05:13:44;;;;;;;;;;;;;;;;;;5012633;28;19921;-61
2023/06/14 05:16:11;;;;;;;;;;;;;;;;;;5011009;28;19925;-61
2023/06/14 05:18:37;;;;;;;;;;;;;;;;;;5006155;28;20290;-60
2023/06/14 05:21:04;;;;;;;;;;;;;;;;;;5012602;28;20007;-60
2023/06/14 05:23:30;;;;;;;;;;;;;;;;;;5012204;28;19964;-61
2023/06/14 05:25:56;;;;;;;;;;;;;;;;;;5010970;28;19956;-61
2023/06/14 05:28:22;;;;;;;;;;;;;;;;;;5010811;28;20613;-60
2023/06/14 05:30:48;;;;;;;;;;;;;;;;;;5010064;28;19926;-60
2023/06/14 05:33:14;;;;;;;;;;;;;;;;;;5012256;28;19922;-60
2023/06/14 05:35:40;;;;;;;;;;;;;;;;;;5001497;28;19937;-61
2023/06/14 05:38:07;;;;;;;;;;;;;;;;;;5012124;28;19967;-61
2023/06/14 05:40:33;;;;;;;;;;;;;;;;;;5010769;28;19928;-61
2023/06/14 05:42:59;;;;;;;;;;;;;;;;;;5011909;28;20028;-62
2023/06/14 05:45:25;;;;;;;;;;;;;;;;;;5011884;28;20375;-62
2023/06/14 05:47:51;;;;;;;;;;;;;;;;;;5010015;28;19928;-61
2023/06/14 05:50:17;;;;;;;;;;;;;;;;;;5008787;28;19921;-61
2023/06/14 05:52:42;;;;;;;;;;;;;;;;;;5005503;28;20471;-60
2023/06/14 05:55:09;;;;;;;;;;;;;;;;;;5007232;28;19921;-59
2023/06/14 05:57:35;;;;;;;;;;;;;;;;;;5010182;28;19925;-59
2023/06/14 06:00:05;;;;;;;;;;;;;;;;;;5012108;28;19925;-60
2023/06/14 06:02:31;;;;;;;;;;;;;;;;;;5010235;28;20275;-60
2023/06/14 06:04:57;;;;;;;;;;;;;;;;;;5010428;28;19932;-61
2023/06/14 06:07:23;;;;;;;;;;;;;;;;;;5010223;28;19925;-61
2023/06/14 06:09:49;;;;;;;;;;;;;;;;;;5008291;28;20568;-61
2023/06/14 06:12:15;;;;;;;;;;;;;;;;;;5012254;28;19929;-61
2023/06/14 06:14:41;;;;;;;;;;;;;;;;;;5010755;28;19979;-61
2023/06/14 06:17:07;;;;;;;;;;;;;;;;;;5033422;28;19921;-61
2023/06/14 06:19:33;;;;;;;;;;;;;;;;;;5013101;28;20354;-61
2023/06/14 06:21:58;;;;;;;;;;;;;;;;;;5013973;28;19925;-61
2023/06/14 06:24:25;;;;;;;;;;;;;;;;;;5015650;28;20024;-61
2023/06/14 06:26:50;;;;;;;;;;;;;;;;;;4997413;28;19921;-61
2023/06/14 06:29:16;;;;;;;;;;;;;;;;;;5014593;28;19921;-61
2023/06/14 06:31:42;;;;;;;;;;;;;;;;;;5014807;28;20272;-61
2023/06/14 06:34:08;;;;;;;;;;;;;;;;;;5015401;28;19984;-61
2023/06/14 06:36:35;;;;;;;;;;;;;;;;;;5009782;28;19926;-61
2023/06/14 06:39:01;;;;;;;;;;;;;;;;;;5011315;28;20391;-62
2023/06/14 06:41:27;;;;;;;;;;;;;;;;;;5012731;28;20378;-61
2023/06/14 06:43:52;;;;;;;;;;;;;;;;;;5013210;28;19921;-61
2023/06/14 06:46:19;;;;;;;;;;;;;;;;;;5009253;28;19922;-62
2023/06/14 06:48:45;;;;;;;;;;;;;;;;;;5012554;28;19932;-62
2023/06/14 06:51:12;;;;;;;;;;;;;;;;;;5013393;28;19929;-61
2023/06/14 06:53:38;;;;;;;;;;;;;;;;;;5015121;28;19925;-61
2023/06/14 06:56:05;;;;;;;;;;;;;;;;;;5014930;28;19921;-62
2023/06/14 06:58:31;;;;;;;;;;;;;;;;;;5015005;28;19961;-61
2023/06/14 07:00:57;;;;;;;;;;;;;;;;;;5013104;28;20018;-61
2023/06/14 07:03:23;;;;;;;;;;;;;;;;;;5011011;28;20395;-61
2023/06/14 07:05:49;;;;;;;;;;;;;;;;;;5008318;28;19981;-62
2023/06/14 07:08:15;;;;;;;;;;;;;;;;;;5012148;28;19925;-61
2023/06/14 07:10:41;;;;;;;;;;;;;;;;;;5008380;28;19976;-61
2023/06/14 07:13:06;;;;;;;;;;;;;;;;;;5013071;28;20394;-61
2023/06/14 07:15:33;;;;;;;;;;;;;;;;;;5006407;28;19928;-61
2023/06/14 07:17:59;;;;;;;;;;;;;;;;;;5008284;28;20268;-61
2023/06/14 07:20:25;;;;;;;;;;;;;;;;;;5006769;28;19937;-61
2023/06/14 07:22:51;;;;;;;;;;;;;;;;;;5012608;28;20001;-61
2023/06/14 07:25:19;;;;;;;;;;;;;;;;;;5010752;28;20000;-61
2023/06/14 07:27:45;;;;;;;;;;;;;;;;;;5011258;28;20012;-61
2023/06/14 07:30:11;;;;;;;;;;;;;;;;;;5011149;28;20023;-61
2023/06/14 07:32:37;;;;;;;;;;;;;;;;;;5011869;28;19956;-61
2023/06/14 07:37:31;;;;;;;;;;;;;;;;;;5029257;28;19979;-63
2023/06/14 07:39:57;;;;;;;;;;;;;;;;;;5033673;28;19952;-62
2023/06/14 07:42:23;;;;;;;;;;;;;;;;;;5033764;28;19921;-62
2023/06/14 07:44:52;;;;;;;;;;;;;;;;;;5032382;28;20024;-63
2023/06/14 07:47:18;;;;;;;;;;;;;;;;;;5033994;28;19951;-63
2023/06/14 07:49:43;;;;;;;;;;;;;;;;;;5030900;28;20347;-62
2023/06/14 07:52:11;;;;;;;;;;;;;;;;;;5033419;28;19990;-63
2023/06/14 07:54:37;;;;;;;;;;;;;;;;;;5032335;28;20255;-62
2023/06/14 07:57:03;;;;;;;;;;;;;;;;;;5033727;28;19971;-62
2023/06/14 07:59:29;;;;;;;;;;;;;;;;;;5033378;28;19921;-62
2023/06/14 08:01:55;;;;;;;;;;;;;;;;;;5032639;28;19921;-62
2023/06/14 08:04:20;;;;;;;;;;;;;;;;;;5031468;28;20394;-62
2023/06/14 08:06:47;;;;;;;;;;;;;;;;;;5032990;28;19987;-63
2023/06/14 08:09:13;;;;;;;;;;;;;;;;;;5032059;28;20274;-62
2023/06/14 08:11:39;;;;;;;;;;;;;;;;;;5031697;28;19929;-63
2023/06/14 08:14:05;;;;;;;;;;;;;;;;;;5033454;28;19925;-62
2023/06/14 08:16:31;;;;;;;;;;;;;;;;;;5030089;28;19921;-63
2023/06/14 08:18:57;;;;;;;;;;;;;;;;;;5031436;28;20301;-63
2023/06/14 08:21:23;;;;;;;;;;;;;;;;;;5029522;28;20378;-63
2023/06/14 08:23:52;;;;;;;;;;;;;;;;;;5032923;28;20019;-62
2023/06/14 08:26:18;;;;;;;;;;;;;;;;;;5031528;28;20402;-63
2023/06/14 08:28:44;;;;;;;;;;;;;;;;;;5033282;28;19925;-63
2023/06/14 08:31:10;;;;;;;;;;;;;;;;;;5032862;28;19972;-63
2023/06/14 08:33:36;;;;;;;;;;;;;;;;;;5027217;28;19935;-63
2023/06/14 08:36:02;;;;;;;;;;;;;;;;;;5010535;28;19926;-63
2023/06/14 08:38:28;;;;;;;;;;;;;;;;;;5032934;28;20533;-63
2023/06/14 08:40:54;;;;;;;;;;;;;;;;;;5020744;28;19925;-63
2023/06/14 08:43:20;;;;;;;;;;;;;;;;;;5032077;28;19922;-63
2023/06/14 08:45:46;;;;;;;;;;;;;;;;;;5030123;28;19928;-62
2023/06/14 08:48:14;;;;;;;;;;;;;;;;;;5032933;28;20290;-62
2023/06/14 08:50:41;;;;;;;;;;;;;;;;;;5032665;28;19925;-63
2023/06/14 08:53:10;;;;;;;;;;;;;;;;;;5032708;28;20340;-63
2023/06/14 08:55:38;;;;;;;;;;;;;;;;;;5032563;28;19921;-63
2023/06/14 08:58:04;;;;;;;;;;;;;;;;;;5030712;28;20012;-63
2023/06/14 09:00:30;;;;;;;;;;;;;;;;;;5030381;28;19925;-63
2023/06/14 09:02:59;;;;;;;;;;;;;;;;;;5032610;28;19929;-63
2023/06/14 09:05:26;;;;;;;;;;;;;;;;;;5032573;28;19921;-63
2023/06/14 09:07:52;;;;;;;;;;;;;;;;;;5032525;28;20012;-63
2023/06/14 09:10:18;;;;;;;;;;;;;;;;;;5031610;28;19925;-63
2023/06/14 09:12:44;;;;;;;;;;;;;;;;;;5032472;28;19948;-63
2023/06/14 09:15:10;;;;;;;;;;;;;;;;;;5030003;28;19925;-63
2023/06/14 09:17:36;;;;;;;;;;;;;;;;;;5032249;28;19924;-63
2023/06/14 09:20:05;;;;;;;;;;;;;;;;;;5032386;28;20373;-63
2023/06/14 09:22:31;;;;;;;;;;;;;;;;;;5028446;28;19925;-63
2023/06/14 09:24:56;;;;;;;;;;;;;;;;;;5032327;28;20449;-63
2023/06/14 09:27:22;;;;;;;;;;;;;;;;;;5030306;28;19975;-63
2023/06/14 09:29:48;;;;;;;;;;;;;;;;;;5025685;28;20412;-62
2023/06/14 09:32:14;;;;;;;;;;;;;;;;;;5020985;28;19932;-63
2023/06/14 09:34:40;;;;;;;;;;;;;;;;;;5031621;28;19925;-63
2023/06/14 09:37:06;;;;;;;;;;;;;;;;;;5034063;28;20016;-63
2023/06/14 09:39:32;;;;;;;;;;;;;;;;;;5031960;28;19921;-63
2023/06/14 09:41:58;;;;;;;;;;;;;;;;;;5013259;28;20022;-63
2023/06/14 09:44:25;;;;;;;;;;;;;;;;;;5016266;28;20387;-63
2023/06/14 09:46:50;;;;;;;;;;;;;;;;;;5012127;28;19968;-63
2023/06/14 09:49:16;;;;;;;;;;;;;;;;;;5029642;28;19929;-63
2023/06/14 09:51:43;;;;;;;;;;;;;;;;;;5031830;28;20034;-63
2023/06/14 09:54:09;;;;;;;;;;;;;;;;;;5030752;28;20248;-63
2023/06/14 09:56:35;;;;;;;;;;;;;;;;;;5030479;28;19958;-63
2023/06/14 09:59:01;;;;;;;;;;;;;;;;;;5022588;28;19932;-62
2023/06/14 10:01:27;;;;;;;;;;;;;;;;;;5015766;28;19922;-62
2023/06/14 10:03:53;;;;;;;;;;;;;;;;;;5032037;28;20252;-63
2023/06/14 10:06:20;;;;;;;;;;;;;;;;;;5030143;28;19925;-63
2023/06/14 10:08:46;;;;;;;;;;;;;;;;;;5031355;28;19925;-63
2023/06/14 10:11:12;;;;;;;;;;;;;;;;;;5031652;28;20024;-63
2023/06/14 10:13:38;;;;;;;;;;;;;;;;;;5017380;28;19925;-61
2023/06/14 10:16:04;;;;;;;;;;;;;;;;;;5011789;28;19928;-61
2023/06/14 10:18:30;;;;;;;;;;;;;;;;;;5030922;28;19921;-61
2023/06/14 10:20:56;;;;;;;;;;;;;;;;;;5031497;28;19986;-61
2023/06/14 10:23:22;;;;;;;;;;;;;;;;;;5039510;28;19924;-61
2023/06/14 10:25:48;;;;;;;;;;;;;;;;;;5051108;28;19993;-60
2023/06/14 10:28:13;;;;;;;;;;;;;;;;;;5033775;28;19932;-61
2023/06/14 10:30:41;;;;;;;;;;;;;;;;;;5030868;28;21216;-61
2023/06/14 10:33:07;;;;;;;;;;;;;;;;;;5031441;28;19925;-61
2023/06/14 10:35:33;;;;;;;;;;;;;;;;;;5034472;28;19976;-61
2023/06/14 10:37:59;;;;;;;;;;;;;;;;;;5032893;28;20469;-61
2023/06/14 10:40:25;;;;;;;;;;;;;;;;;;5032039;28;19921;-61
2023/06/14 10:42:51;;;;;;;;;;;;;;;;;;5046916;28;19924;-61
2023/06/14 10:45:16;;;;;;;;;;;;;;;;;;5048527;28;20335;-62
2023/06/14 10:47:42;;;;;;;;;;;;;;;;;;5048367;28;19975;-61
2023/06/14 10:50:08;;;;;;;;;;;;;;;;;;5051020;28;20330;-61
2023/06/14 10:52:35;;;;;;;;;;;;;;;;;;5050657;28;19924;-60
2023/06/14 10:55:01;;;;;;;;;;;;;;;;;;5051063;28;19924;-60
2023/06/14 10:57:27;;;;;;;;;;;;;;;;;;5037533;28;19975;-60
2023/06/14 10:59:54;;;;;;;;;;;;;;;;;;5040296;28;20286;-60
2023/06/14 11:02:20;;;;;;;;;;;;;;;;;;5053571;28;19928;-60
2023/06/14 11:04:46;;;;;;;;;;;;;;;;;;5054561;28;19921;-60
2023/06/14 11:07:12;;;;;;;;;;;;;;;;;;5036358;28;19944;-61
2023/06/14 11:09:39;;;;;;;;;;;;;;;;;;5051147;28;19925;-61
2023/06/14 11:12:05;;;;;;;;;;;;;;;;;;5039751;28;19924;-60
2023/06/14 11:14:31;;;;;;;;;;;;;;;;;;5052603;28;19931;-60
2023/06/14 11:16:57;;;;;;;;;;;;;;;;;;5054011;28;19929;-60
2023/06/14 11:19:23;;;;;;;;;;;;;;;;;;5052818;28;19921;-61
2023/06/14 11:21:48;;;;;;;;;;;;;;;;;;5036078;28;19975;-60
2023/06/14 11:24:14;;;;;;;;;;;;;;;;;;5050188;28;19925;-60
2023/06/14 11:26:40;;;;;;;;;;;;;;;;;;5049755;28;19925;-60
2023/06/14 11:29:06;;;;;;;;;;;;;;;;;;5016218;28;19976;-60
2023/06/14 11:31:32;;;;;;;;;;;;;;;;;;5043502;28;20338;-60
2023/06/14 11:33:58;;;;;;;;;;;;;;;;;;5039190;28;20267;-60
2023/06/14 11:36:24;;;;;;;;;;;;;;;;;;5051963;28;19932;-61
2023/06/14 11:38:50;;;;;;;;;;;;;;;;;;5053960;28;19924;-61
2023/06/14 11:41:16;;;;;;;;;;;;;;;;;;5046969;28;20012;-61
2023/06/14 11:43:42;;;;;;;;;;;;;;;;;;5053668;28;19931;-61
2023/06/14 11:46:07;;;;;;;;;;;;;;;;;;5035754;28;19968;-61
2023/06/14 11:48:33;;;;;;;;;;;;;;;;;;5027662;28;20294;-61
2023/06/14 11:50:59;;;;;;;;;;;;;;;;;;5049557;28;19929;-61
2023/06/14 11:53:25;;;;;;;;;;;;;;;;;;5051420;28;19931;-62
2023/06/14 11:55:51;;;;;;;;;;;;;;;;;;5053663;28;19920;-61
2023/06/14 11:58:17;;;;;;;;;;;;;;;;;;5050773;28;20320;-60
2023/06/14 12:00:43;;;;;;;;;;;;;;;;;;5052943;28;19920;-61
2023/06/14 12:03:09;;;;;;;;;;;;;;;;;;5035440;28;19933;-60
2023/06/14 12:05:35;;;;;;;;;;;;;;;;;;5053299;28;19920;-60
2023/06/14 12:08:02;;;;;;;;;;;;;;;;;;5051097;28;19921;-61
2023/06/14 12:10:28;;;;;;;;;;;;;;;;;;5053290;28;19973;-61
2023/06/14 12:12:53;;;;;;;;;;;;;;;;;;5026048;28;19920;-61
2023/06/14 12:15:20;;;;;;;;;;;;;;;;;;5043761;28;19929;-61
2023/06/14 12:17:46;;;;;;;;;;;;;;;;;;5050994;28;20460;-62
2023/06/14 12:20:16;;;;;;;;;;;;;;;;;;5049937;28;19971;-60
2023/06/14 12:22:42;;;;;;;;;;;;;;;;;;5050750;28;19931;-60
2023/06/14 12:25:09;;;;;;;;;;;;;;;;;;5043978;28;19925;-61
2023/06/14 12:27:36;;;;;;;;;;;;;;;;;;5048006;28;20002;-61
2023/06/14 12:30:02;;;;;;;;;;;;;;;;;;5016363;28;19920;-60
2023/06/14 12:32:28;;;;;;;;;;;;;;;;;;5048067;28;19925;-60
2023/06/14 12:34:54;;;;;;;;;;;;;;;;;;5048524;28;19925;-60
2023/06/14 12:37:20;;;;;;;;;;;;;;;;;;5048054;28;19928;-61
2023/06/14 12:39:46;;;;;;;;;;;;;;;;;;5052560;28;20007;-61
2023/06/14 12:42:14;;;;;;;;;;;;;;;;;;5050009;28;19980;-61
2023/06/14 12:44:40;;;;;;;;;;;;;;;;;;5052738;28;19925;-61
2023/06/14 12:47:06;;;;;;;;;;;;;;;;;;5045832;28;20290;-61
2023/06/14 12:49:32;;;;;;;;;;;;;;;;;;5051879;28;19943;-61
2023/06/14 12:51:58;;;;;;;;;;;;;;;;;;5048967;28;19925;-61
2023/06/14 12:54:25;;;;;;;;;;;;;;;;;;5052402;28;20545;-61
2023/06/14 12:56:51;;;;;;;;;;;;;;;;;;5049109;28;20008;-61
2023/06/14 12:59:17;;;;;;;;;;;;;;;;;;5048610;28;19928;-61
2023/06/14 13:01:44;;;;;;;;;;;;;;;;;;5045027;28;19925;-61
2023/06/14 13:04:10;;;;;;;;;;;;;;;;;;5045938;28;19927;-61
2023/06/14 13:06:36;;;;;;;;;;;;;;;;;;5050611;28;19929;-61
2023/06/14 13:09:03;;;;;;;;;;;;;;;;;;5047289;28;19932;-61
2023/06/14 13:11:30;;;;;;;;;;;;;;;;;;5051120;28;20263;-61
2023/06/14 13:13:56;;;;;;;;;;;;;;;;;;5043049;28;19966;-61
2023/06/14 13:16:21;;;;;;;;;;;;;;;;;;5049935;28;19920;-61
2023/06/14 13:18:47;;;;;;;;;;;;;;;;;;5039657;28;19964;-61
2023/06/14 13:21:13;;;;;;;;;;;;;;;;;;5045917;28;19985;-61
2023/06/14 13:23:39;;;;;;;;;;;;;;;;;;5048790;28;19925;-61
2023/06/14 13:26:05;;;;;;;;;;;;;;;;;;5045134;28;19920;-61
2023/06/14 13:28:32;;;;;;;;;;;;;;;;;;5050943;28;19920;-61
2023/06/14 13:30:58;;;;;;;;;;;;;;;;;;5047311;28;19928;-61
2023/06/14 13:33:24;;;;;;;;;;;;;;;;;;5051541;28;20326;-61
2023/06/14 13:35:52;;;;;;;;;;;;;;;;;;5043513;28;19925;-61
2023/06/14 13:38:18;;;;;;;;;;;;;;;;;;5050150;28;20031;-62
2023/06/14 13:40:44;;;;;;;;;;;;;;;;;;5011658;28;20358;-61
2023/06/14 13:43:10;;;;;;;;;;;;;;;;;;5051750;28;19921;-61
2023/06/14 13:45:36;;;;;;;;;;;;;;;;;;5045160;28;19925;-62
2023/06/14 13:48:02;;;;;;;;;;;;;;;;;;5047910;28;19930;-59
2023/06/14 13:50:28;;;;;;;;;;;;;;;;;;5031581;28;20442;-60
2023/06/14 13:52:54;;;;;;;;;;;;;;;;;;5049457;28;20019;-60
2023/06/14 13:55:20;;;;;;;;;;;;;;;;;;5049036;28;19967;-60
2023/06/14 13:57:46;;;;;;;;;;;;;;;;;;5047759;28;19929;-61
2023/06/14 14:00:12;;;;;;;;;;;;;;;;;;5046668;28;20297;-61
2023/06/14 14:02:39;;;;;;;;;;;;;;;;;;5026193;28;19966;-61
2023/06/14 14:05:05;;;;;;;;;;;;;;;;;;5046414;28;19929;-61
2023/06/14 14:07:31;;;;;;;;;;;;;;;;;;5043395;28;20332;-61
2023/06/14 14:09:57;;;;;;;;;;;;;;;;;;5027976;28;19970;-60
2023/06/14 14:12:23;;;;;;;;;;;;;;;;;;5050708;28;19955;-61
2023/06/14 14:14:50;;;;;;;;;;;;;;;;;;5039716;28;20378;-61
2023/06/14 14:17:16;;;;;;;;;;;;;;;;;;5048867;28;20298;-61
2023/06/14 14:19:42;;;;;;;;;;;;;;;;;;5046016;28;19924;-61
2023/06/14 14:22:08;;;;;;;;;;;;;;;;;;5047237;28;20043;-61
2023/06/14 14:24:33;;;;;;;;;;;;;;;;;;5030998;28;19921;-61
2023/06/14 14:27:00;;;;;;;;;;;;;;;;;;5047892;28;19929;-61
2023/06/14 14:29:28;;;;;;;;;;;;;;;;;;5020943;28;19928;-61
2023/06/14 14:31:55;;;;;;;;;;;;;;;;;;5048640;28;19925;-61
2023/06/14 14:34:20;;;;;;;;;;;;;;;;;;5049738;28;19921;-61
2023/06/14 14:36:46;;;;;;;;;;;;;;;;;;5051424;28;19940;-61
2023/06/14 14:39:12;;;;;;;;;;;;;;;;;;5036779;28;19924;-61
2023/06/14 14:41:39;;;;;;;;;;;;;;;;;;5052414;28;19963;-61
2023/06/14 14:44:05;;;;;;;;;;;;;;;;;;5053139;28;19978;-60
2023/06/14 14:46:31;;;;;;;;;;;;;;;;;;5026680;28;19928;-61
2023/06/14 14:48:57;;;;;;;;;;;;;;;;;;5055207;28;19921;-61
2023/06/14 14:51:23;;;;;;;;;;;;;;;;;;5050274;28;20574;-60
2023/06/14 14:53:49;;;;;;;;;;;;;;;;;;5048410;28;20034;-60
2023/06/14 14:56:15;;;;;;;;;;;;;;;;;;5021007;28;19921;-60
2023/06/14 14:58:41;;;;;;;;;;;;;;;;;;5054392;28;19921;-61
2023/06/14 15:01:07;;;;;;;;;;;;;;;;;;5025630;28;19929;-60
2023/06/14 15:03:33;;;;;;;;;;;;;;;;;;5032338;28;19993;-61
2023/06/14 15:05:59;;;;;;;;;;;;;;;;;;5054572;28;19925;-61
2023/06/14 15:08:25;;;;;;;;;;;;;;;;;;5042561;28;19921;-60
2023/06/14 15:10:51;;;;;;;;;;;;;;;;;;5053262;28;19951;-60
2023/06/14 15:13:17;;;;;;;;;;;;;;;;;;5047514;28;19928;-61
2023/06/14 15:15:42;;;;;;;;;;;;;;;;;;5051147;28;19924;-60
2023/06/14 15:18:09;;;;;;;;;;;;;;;;;;5038799;28;19975;-60
2023/06/14 15:20:35;;;;;;;;;;;;;;;;;;5047384;28;19963;-60
2023/06/14 15:23:01;;;;;;;;;;;;;;;;;;5036036;28;19967;-61
2023/06/14 15:25:27;;;;;;;;;;;;;;;;;;5046652;28;19924;-60
2023/06/14 15:27:53;;;;;;;;;;;;;;;;;;5051461;28;20389;-60
2023/06/14 15:30:19;;;;;;;;;;;;;;;;;;5045978;28;20012;-61
2023/06/14 15:32:45;;;;;;;;;;;;;;;;;;5050416;28;19925;-60
2023/06/14 15:35:12;;;;;;;;;;;;;;;;;;5045663;28;20306;-61
2023/06/14 15:37:37;;;;;;;;;;;;;;;;;;5053025;28;19924;-61
2023/06/14 15:40:03;;;;;;;;;;;;;;;;;;5051480;28;20338;-60
2023/06/14 15:42:29;;;;;;;;;;;;;;;;;;5027507;28;19925;-61
2023/06/14 15:44:55;;;;;;;;;;;;;;;;;;5031287;28;20070;-61
2023/06/14 15:47:21;;;;;;;;;;;;;;;;;;5051661;28;19921;-61
2023/06/14 15:49:47;;;;;;;;;;;;;;;;;;5048643;28;19936;-60
2023/06/14 15:52:13;;;;;;;;;;;;;;;;;;5024297;28;19925;-60
2023/06/14 15:54:39;;;;;;;;;;;;;;;;;;5051524;28;19925;-60
2023/06/14 15:57:05;;;;;;;;;;;;;;;;;;5053712;28;19921;-60
2023/06/14 15:59:31;;;;;;;;;;;;;;;;;;5051152;28;19921;-60
2023/06/14 16:01:57;;;;;;;;;;;;;;;;;;5043227;28;19936;-60
2023/06/14 16:04:23;;;;;;;;;;;;;;;;;;5046873;28;19928;-61
2023/06/14 16:06:49;;;;;;;;;;;;;;;;;;5033336;28;19921;-61
2023/06/14 16:09:14;;;;;;;;;;;;;;;;;;5042773;28;19927;-61
2023/06/14 16:11:40;;;;;;;;;;;;;;;;;;5052935;28;19976;-61
2023/06/14 16:14:06;;;;;;;;;;;;;;;;;;5051012;28;19960;-61
2023/06/14 16:16:32;;;;;;;;;;;;;;;;;;5049393;28;19928;-62
2023/06/14 16:18:58;;;;;;;;;;;;;;;;;;5043635;28;19921;-61
2023/06/14 16:21:25;;;;;;;;;;;;;;;;;;5032103;28;19968;-62
2023/06/14 16:23:51;;;;;;;;;;;;;;;;;;5051891;28;20465;-61
2023/06/14 16:26:17;;;;;;;;;;;;;;;;;;5030682;28;20012;-61
2023/06/14 16:28:43;;;;;;;;;;;;;;;;;;5042735;28;19931;-61
2023/06/14 16:31:09;;;;;;;;;;;;;;;;;;5047691;28;19972;-62
2023/06/14 16:33:35;;;;;;;;;;;;;;;;;;5048235;28;19964;-64
2023/06/14 16:36:01;;;;;;;;;;;;;;;;;;5044336;28;19929;-64
2023/06/14 16:38:27;;;;;;;;;;;;;;;;;;5050852;28;19931;-64
2023/06/14 16:40:53;;;;;;;;;;;;;;;;;;5052763;28;20008;-64